sensor_id;sensor_type;location;lat;lon;timestamp;temperature;humidity
58568;DHT22;44354;46.192;-1.076;2023-04-24T00:02:15;9.90;99.90
58568;DHT22;44354;46.192;-1.076;2023-04-24T00:04:41;10.00;99.90
58568;DHT22;44354;46.192;-1.076;2023-04-24T00:07:10;10.00;99.90
58568;DHT22;44354;46.192;-1.076;2023-04-24T00:09:36;10.00;99.90
58568;DHT22;44354;46.192;-1.076;2023-04-24T00:12:02;10.10;99.90
58568;DHT22;44354;46.192;-1.076;2023-04-24T00:14:31;10.10;99.90
58568;DHT22;44354;46.192;-1.076;2023-04-24T00:16:57;10.10;99.90
58568;DHT22;44354;46.192;-1.076;2023-04-24T00:19:22;10.20;99.90
58568;DHT22;44354;46.192;-1.076;2023-04-24T00:21:48;10.20;99.90
58568;DHT22;44354;46.192;-1.076;2023-04-24T00:24:17;10.20;99.90
58568;DHT22;44354;46.192;-1.076;2023-04-24T00:26:44;10.10;99.90
58568;DHT22;44354;46.192;-1.076;2023-04-24T00:29:10;10.10;99.90
58568;DHT22;44354;46.192;-1.076;2023-04-24T00:31:35;10.00;99.90
58568;DHT22;44354;46.192;-1.076;2023-04-24T00:34:02;9.90;99.90
58568;DHT22;44354;46.192;-1.076;2023-04-24T00:36:28;9.70;99.90
58568;DHT22;44354;46.192;-1.076;2023-04-24T00:38:54;9.70;99.90
58568;DHT22;44354;46.192;-1.076;2023-04-24T00:41:21;9.50;99.90
58568;DHT22;44354;46.192;-1.076;2023-04-24T00:43:47;9.50;99.90
58568;DHT22;44354;46.192;-1.076;2023-04-24T00:46:14;9.50;99.90
58568;DHT22;44354;46.192;-1.076;2023-04-24T00:48:40;9.50;99.90
58568;DHT22;44354;46.192;-1.076;2023-04-24T00:51:05;9.40;99.90
58568;DHT22;44354;46.192;-1.076;2023-04-24T00:53:31;9.40;99.90
58568;DHT22;44354;46.192;-1.076;2023-04-24T00:55:58;9.40;99.90
58568;DHT22;44354;46.192;-1.076;2023-04-24T00:58:24;9.40;99.90
58568;DHT22;44354;46.192;-1.076;2023-04-24T01:00:51;9.40;99.90
58568;DHT22;44354;46.192;-1.076;2023-04-24T01:03:20;9.40;99.90
58568;DHT22;44354;46.192;-1.076;2023-04-24T01:05:47;9.30;99.90
58568;DHT22;44354;46.192;-1.076;2023-04-24T01:08:14;9.30;99.90
58568;DHT22;44354;46.192;-1.076;2023-04-24T01:10:41;9.30;99.90
58568;DHT22;44354;46.192;-1.076;2023-04-24T01:13:10;9.30;99.90
58568;DHT22;44354;46.192;-1.076;2023-04-24T01:15:36;9.30;99.90
58568;DHT22;44354;46.192;-1.076;2023-04-24T01:18:02;9.30;99.90
58568;DHT22;44354;46.192;-1.076;2023-04-24T01:20:29;9.20;99.90
58568;DHT22;44354;46.192;-1.076;2023-04-24T01:22:55;9.30;99.90
58568;DHT22;44354;46.192;-1.076;2023-04-24T01:25:22;9.20;99.90
58568;DHT22;44354;46.192;-1.076;2023-04-24T01:27:48;9.20;99.90
58568;DHT22;44354;46.192;-1.076;2023-04-24T01:30:14;9.20;99.90
58568;DHT22;44354;46.192;-1.076;2023-04-24T01:32:40;9.30;99.90
58568;DHT22;44354;46.192;-1.076;2023-04-24T01:35:09;9.30;99.90
58568;DHT22;44354;46.192;-1.076;2023-04-24T01:37:35;9.30;99.90
58568;DHT22;44354;46.192;-1.076;2023-04-24T01:40:04;9.20;99.90
58568;DHT22;44354;46.192;-1.076;2023-04-24T01:42:30;9.20;99.90
58568;DHT22;44354;46.192;-1.076;2023-04-24T01:44:57;9.20;99.90
58568;DHT22;44354;46.192;-1.076;2023-04-24T01:47:23;9.20;99.90
58568;DHT22;44354;46.192;-1.076;2023-04-24T01:49:50;9.20;99.90
58568;DHT22;44354;46.192;-1.076;2023-04-24T01:52:16;9.20;99.90
58568;DHT22;44354;46.192;-1.076;2023-04-24T01:54:43;9.20;99.90
58568;DHT22;44354;46.192;-1.076;2023-04-24T01:57:09;9.20;99.90
58568;DHT22;44354;46.192;-1.076;2023-04-24T01:59:34;9.10;99.90
58568;DHT22;44354;46.192;-1.076;2023-04-24T02:02:02;9.20;99.90
58568;DHT22;44354;46.192;-1.076;2023-04-24T02:04:28;9.20;99.90
58568;DHT22;44354;46.192;-1.076;2023-04-24T02:06:54;9.20;99.90
58568;DHT22;44354;46.192;-1.076;2023-04-24T02:09:20;9.20;99.90
58568;DHT22;44354;46.192;-1.076;2023-04-24T02:11:46;9.20;99.90
58568;DHT22;44354;46.192;-1.076;2023-04-24T02:14:11;9.20;99.90
58568;DHT22;44354;46.192;-1.076;2023-04-24T02:16:37;9.20;99.90
58568;DHT22;44354;46.192;-1.076;2023-04-24T02:19:03;9.20;99.90
58568;DHT22;44354;46.192;-1.076;2023-04-24T02:21:29;9.10;99.90
58568;DHT22;44354;46.192;-1.076;2023-04-24T02:23:56;9.10;99.90
58568;DHT22;44354;46.192;-1.076;2023-04-24T02:26:22;9.20;99.90
58568;DHT22;44354;46.192;-1.076;2023-04-24T02:28:47;9.10;99.90
58568;DHT22;44354;46.192;-1.076;2023-04-24T02:31:13;9.10;99.90
58568;DHT22;44354;46.192;-1.076;2023-04-24T02:33:38;9.10;99.90
58568;DHT22;44354;46.192;-1.076;2023-04-24T02:36:04;9.10;99.90
58568;DHT22;44354;46.192;-1.076;2023-04-24T02:38:30;9.10;99.90
58568;DHT22;44354;46.192;-1.076;2023-04-24T02:40:56;9.00;99.90
58568;DHT22;44354;46.192;-1.076;2023-04-24T02:43:21;9.00;99.90
58568;DHT22;44354;46.192;-1.076;2023-04-24T02:45:47;9.00;99.90
58568;DHT22;44354;46.192;-1.076;2023-04-24T02:48:13;9.10;99.90
58568;DHT22;44354;46.192;-1.076;2023-04-24T02:50:39;9.10;99.90
58568;DHT22;44354;46.192;-1.076;2023-04-24T02:53:04;9.10;99.90
58568;DHT22;44354;46.192;-1.076;2023-04-24T02:55:30;9.10;99.90
58568;DHT22;44354;46.192;-1.076;2023-04-24T02:57:56;9.10;99.90
58568;DHT22;44354;46.192;-1.076;2023-04-24T03:00:21;9.10;99.90
58568;DHT22;44354;46.192;-1.076;2023-04-24T03:02:47;9.20;99.90
58568;DHT22;44354;46.192;-1.076;2023-04-24T03:05:13;9.20;99.90
58568;DHT22;44354;46.192;-1.076;2023-04-24T03:07:39;9.20;99.90
58568;DHT22;44354;46.192;-1.076;2023-04-24T03:10:05;9.20;99.90
58568;DHT22;44354;46.192;-1.076;2023-04-24T03:12:31;9.20;99.90
58568;DHT22;44354;46.192;-1.076;2023-04-24T03:14:57;9.30;99.90
58568;DHT22;44354;46.192;-1.076;2023-04-24T03:17:22;9.30;99.90
58568;DHT22;44354;46.192;-1.076;2023-04-24T03:19:48;9.40;99.90
58568;DHT22;44354;46.192;-1.076;2023-04-24T03:22:14;9.50;99.90
58568;DHT22;44354;46.192;-1.076;2023-04-24T03:24:39;9.50;99.90
58568;DHT22;44354;46.192;-1.076;2023-04-24T03:27:05;9.50;99.90
58568;DHT22;44354;46.192;-1.076;2023-04-24T03:29:31;9.50;99.90
58568;DHT22;44354;46.192;-1.076;2023-04-24T03:31:57;9.60;99.90
58568;DHT22;44354;46.192;-1.076;2023-04-24T03:34:22;9.60;99.90
58568;DHT22;44354;46.192;-1.076;2023-04-24T03:36:48;9.70;99.90
58568;DHT22;44354;46.192;-1.076;2023-04-24T03:39:14;9.80;99.90
58568;DHT22;44354;46.192;-1.076;2023-04-24T03:41:39;9.80;99.90
58568;DHT22;44354;46.192;-1.076;2023-04-24T03:44:05;9.80;99.90
58568;DHT22;44354;46.192;-1.076;2023-04-24T03:46:31;9.90;99.90
58568;DHT22;44354;46.192;-1.076;2023-04-24T03:48:56;10.00;99.90
58568;DHT22;44354;46.192;-1.076;2023-04-24T03:51:22;10.00;99.90
58568;DHT22;44354;46.192;-1.076;2023-04-24T03:53:48;10.00;99.90
58568;DHT22;44354;46.192;-1.076;2023-04-24T03:56:14;10.10;99.90
58568;DHT22;44354;46.192;-1.076;2023-04-24T03:58:40;10.10;99.90
58568;DHT22;44354;46.192;-1.076;2023-04-24T04:01:05;10.20;99.90
58568;DHT22;44354;46.192;-1.076;2023-04-24T04:03:31;10.30;99.90
58568;DHT22;44354;46.192;-1.076;2023-04-24T04:05:57;10.30;99.90
58568;DHT22;44354;46.192;-1.076;2023-04-24T04:08:23;10.30;99.90
58568;DHT22;44354;46.192;-1.076;2023-04-24T04:10:49;10.40;99.90
58568;DHT22;44354;46.192;-1.076;2023-04-24T04:13:14;10.30;99.90
58568;DHT22;44354;46.192;-1.076;2023-04-24T04:15:40;10.30;99.90
58568;DHT22;44354;46.192;-1.076;2023-04-24T04:18:06;10.30;99.90
58568;DHT22;44354;46.192;-1.076;2023-04-24T04:20:32;10.30;99.90
58568;DHT22;44354;46.192;-1.076;2023-04-24T04:22:57;10.20;99.90
58568;DHT22;44354;46.192;-1.076;2023-04-24T04:25:23;10.20;99.90
58568;DHT22;44354;46.192;-1.076;2023-04-24T04:27:49;10.20;99.90
58568;DHT22;44354;46.192;-1.076;2023-04-24T04:30:16;10.20;99.90
58568;DHT22;44354;46.192;-1.076;2023-04-24T04:32:42;10.20;99.90
58568;DHT22;44354;46.192;-1.076;2023-04-24T04:35:07;10.20;99.90
58568;DHT22;44354;46.192;-1.076;2023-04-24T04:37:34;10.10;99.90
58568;DHT22;44354;46.192;-1.076;2023-04-24T04:40:01;10.10;99.90
58568;DHT22;44354;46.192;-1.076;2023-04-24T04:42:27;10.10;99.90
58568;DHT22;44354;46.192;-1.076;2023-04-24T04:44:53;10.10;99.90
58568;DHT22;44354;46.192;-1.076;2023-04-24T04:47:21;10.10;99.90
58568;DHT22;44354;46.192;-1.076;2023-04-24T04:49:48;10.10;99.90
58568;DHT22;44354;46.192;-1.076;2023-04-24T04:52:14;10.10;99.90
58568;DHT22;44354;46.192;-1.076;2023-04-24T04:54:40;10.10;99.90
58568;DHT22;44354;46.192;-1.076;2023-04-24T04:57:06;10.00;99.90
58568;DHT22;44354;46.192;-1.076;2023-04-24T04:59:31;10.00;99.90
58568;DHT22;44354;46.192;-1.076;2023-04-24T05:01:57;10.00;99.90
58568;DHT22;44354;46.192;-1.076;2023-04-24T05:04:23;10.00;99.90
58568;DHT22;44354;46.192;-1.076;2023-04-24T05:06:48;9.80;99.90
58568;DHT22;44354;46.192;-1.076;2023-04-24T05:09:16;9.90;99.90
58568;DHT22;44354;46.192;-1.076;2023-04-24T05:11:42;9.90;99.90
58568;DHT22;44354;46.192;-1.076;2023-04-24T05:14:07;9.90;99.90
58568;DHT22;44354;46.192;-1.076;2023-04-24T05:16:33;9.80;99.90
58568;DHT22;44354;46.192;-1.076;2023-04-24T05:18:59;9.70;99.90
58568;DHT22;44354;46.192;-1.076;2023-04-24T05:21:24;9.70;99.90
58568;DHT22;44354;46.192;-1.076;2023-04-24T05:23:50;9.70;99.90
58568;DHT22;44354;46.192;-1.076;2023-04-24T05:26:16;9.70;99.90
58568;DHT22;44354;46.192;-1.076;2023-04-24T05:28:43;9.70;99.90
58568;DHT22;44354;46.192;-1.076;2023-04-24T05:31:08;9.70;99.90
58568;DHT22;44354;46.192;-1.076;2023-04-24T05:33:34;9.70;99.90
58568;DHT22;44354;46.192;-1.076;2023-04-24T05:36:00;9.60;99.90
58568;DHT22;44354;46.192;-1.076;2023-04-24T05:38:25;9.70;99.90
58568;DHT22;44354;46.192;-1.076;2023-04-24T05:40:51;9.60;99.90
58568;DHT22;44354;46.192;-1.076;2023-04-24T05:43:17;9.60;99.90
58568;DHT22;44354;46.192;-1.076;2023-04-24T05:45:42;9.60;99.90
58568;DHT22;44354;46.192;-1.076;2023-04-24T05:48:08;9.60;99.90
58568;DHT22;44354;46.192;-1.076;2023-04-24T05:50:34;9.60;99.90
58568;DHT22;44354;46.192;-1.076;2023-04-24T05:52:59;9.70;99.90
58568;DHT22;44354;46.192;-1.076;2023-04-24T05:55:27;9.70;99.90
58568;DHT22;44354;46.192;-1.076;2023-04-24T05:57:53;9.70;99.90
58568;DHT22;44354;46.192;-1.076;2023-04-24T06:00:19;9.70;99.90
58568;DHT22;44354;46.192;-1.076;2023-04-24T06:02:46;9.70;99.90
58568;DHT22;44354;46.192;-1.076;2023-04-24T06:05:11;9.70;99.90
58568;DHT22;44354;46.192;-1.076;2023-04-24T06:07:37;9.80;99.90
58568;DHT22;44354;46.192;-1.076;2023-04-24T06:10:03;9.80;99.90
58568;DHT22;44354;46.192;-1.076;2023-04-24T06:12:28;9.90;99.90
58568;DHT22;44354;46.192;-1.076;2023-04-24T06:14:54;10.00;99.90
58568;DHT22;44354;46.192;-1.076;2023-04-24T06:17:21;10.00;99.90
58568;DHT22;44354;46.192;-1.076;2023-04-24T06:19:46;10.10;99.90
58568;DHT22;44354;46.192;-1.076;2023-04-24T06:22:12;10.00;99.90
58568;DHT22;44354;46.192;-1.076;2023-04-24T06:24:39;10.10;99.90
58568;DHT22;44354;46.192;-1.076;2023-04-24T06:27:05;10.20;99.90
58568;DHT22;44354;46.192;-1.076;2023-04-24T06:29:32;10.20;99.90
58568;DHT22;44354;46.192;-1.076;2023-04-24T06:31:58;10.20;99.90
58568;DHT22;44354;46.192;-1.076;2023-04-24T06:34:23;10.30;99.90
58568;DHT22;44354;46.192;-1.076;2023-04-24T06:36:49;10.40;99.90
58568;DHT22;44354;46.192;-1.076;2023-04-24T06:39:15;10.50;99.90
58568;DHT22;44354;46.192;-1.076;2023-04-24T06:41:40;10.60;99.90
58568;DHT22;44354;46.192;-1.076;2023-04-24T06:44:06;10.70;99.90
58568;DHT22;44354;46.192;-1.076;2023-04-24T06:46:32;10.80;99.90
58568;DHT22;44354;46.192;-1.076;2023-04-24T06:48:58;10.90;99.90
58568;DHT22;44354;46.192;-1.076;2023-04-24T06:51:24;11.00;99.90
58568;DHT22;44354;46.192;-1.076;2023-04-24T06:53:50;11.10;99.90
58568;DHT22;44354;46.192;-1.076;2023-04-24T06:56:16;11.20;99.90
58568;DHT22;44354;46.192;-1.076;2023-04-24T06:58:42;11.30;99.90
58568;DHT22;44354;46.192;-1.076;2023-04-24T07:01:07;11.50;99.90
58568;DHT22;44354;46.192;-1.076;2023-04-24T07:03:33;11.50;99.90
58568;DHT22;44354;46.192;-1.076;2023-04-24T07:05:58;11.60;99.90
58568;DHT22;44354;46.192;-1.076;2023-04-24T07:08:24;11.60;99.90
58568;DHT22;44354;46.192;-1.076;2023-04-24T07:10:50;11.60;99.90
58568;DHT22;44354;46.192;-1.076;2023-04-24T07:13:16;11.60;99.90
58568;DHT22;44354;46.192;-1.076;2023-04-24T07:15:42;11.70;99.90
58568;DHT22;44354;46.192;-1.076;2023-04-24T07:18:08;11.60;99.90
58568;DHT22;44354;46.192;-1.076;2023-04-24T07:20:34;11.70;99.90
58568;DHT22;44354;46.192;-1.076;2023-04-24T07:23:00;11.80;99.90
58568;DHT22;44354;46.192;-1.076;2023-04-24T07:25:25;12.00;99.90
58568;DHT22;44354;46.192;-1.076;2023-04-24T07:27:51;12.00;99.90
58568;DHT22;44354;46.192;-1.076;2023-04-24T07:30:17;11.90;99.90
58568;DHT22;44354;46.192;-1.076;2023-04-24T07:32:43;12.00;99.90
58568;DHT22;44354;46.192;-1.076;2023-04-24T07:35:09;11.80;99.90
58568;DHT22;44354;46.192;-1.076;2023-04-24T07:37:35;11.70;99.90
58568;DHT22;44354;46.192;-1.076;2023-04-24T07:40:01;11.80;99.90
58568;DHT22;44354;46.192;-1.076;2023-04-24T07:42:27;11.90;99.90
58568;DHT22;44354;46.192;-1.076;2023-04-24T07:44:53;12.10;99.90
58568;DHT22;44354;46.192;-1.076;2023-04-24T07:47:19;12.00;99.90
58568;DHT22;44354;46.192;-1.076;2023-04-24T07:49:44;12.10;99.90
58568;DHT22;44354;46.192;-1.076;2023-04-24T07:52:10;12.10;99.90
58568;DHT22;44354;46.192;-1.076;2023-04-24T07:54:36;12.20;99.90
58568;DHT22;44354;46.192;-1.076;2023-04-24T07:57:03;12.40;99.90
58568;DHT22;44354;46.192;-1.076;2023-04-24T07:59:28;12.40;99.90
58568;DHT22;44354;46.192;-1.076;2023-04-24T08:01:54;12.50;99.90
58568;DHT22;44354;46.192;-1.076;2023-04-24T08:04:20;12.60;99.90
58568;DHT22;44354;46.192;-1.076;2023-04-24T08:06:47;12.80;99.90
58568;DHT22;44354;46.192;-1.076;2023-04-24T08:09:13;12.70;99.90
58568;DHT22;44354;46.192;-1.076;2023-04-24T08:11:38;12.70;99.90
58568;DHT22;44354;46.192;-1.076;2023-04-24T08:14:04;12.60;99.90
58568;DHT22;44354;46.192;-1.076;2023-04-24T08:16:29;12.50;99.90
58568;DHT22;44354;46.192;-1.076;2023-04-24T08:18:55;12.20;99.90
58568;DHT22;44354;46.192;-1.076;2023-04-24T08:21:21;12.20;99.90
58568;DHT22;44354;46.192;-1.076;2023-04-24T08:23:47;12.20;99.90
58568;DHT22;44354;46.192;-1.076;2023-04-24T08:26:13;12.20;99.90
58568;DHT22;44354;46.192;-1.076;2023-04-24T08:28:39;12.30;99.90
58568;DHT22;44354;46.192;-1.076;2023-04-24T08:31:04;12.30;99.90
58568;DHT22;44354;46.192;-1.076;2023-04-24T08:33:30;12.20;99.90
58568;DHT22;44354;46.192;-1.076;2023-04-24T08:36:02;12.20;99.90
58568;DHT22;44354;46.192;-1.076;2023-04-24T08:38:29;12.30;99.90
58568;DHT22;44354;46.192;-1.076;2023-04-24T08:40:56;12.30;99.90
58568;DHT22;44354;46.192;-1.076;2023-04-24T08:43:22;12.60;99.90
58568;DHT22;44354;46.192;-1.076;2023-04-24T08:45:48;12.70;99.90
58568;DHT22;44354;46.192;-1.076;2023-04-24T08:48:15;12.70;99.90
58568;DHT22;44354;46.192;-1.076;2023-04-24T08:50:40;12.60;99.90
58568;DHT22;44354;46.192;-1.076;2023-04-24T08:53:08;12.70;99.90
58568;DHT22;44354;46.192;-1.076;2023-04-24T08:55:34;12.80;99.90
58568;DHT22;44354;46.192;-1.076;2023-04-24T08:58:01;12.90;99.90
58568;DHT22;44354;46.192;-1.076;2023-04-24T09:00:28;13.00;99.90
58568;DHT22;44354;46.192;-1.076;2023-04-24T09:02:55;12.90;99.90
58568;DHT22;44354;46.192;-1.076;2023-04-24T09:05:22;12.80;99.90
58568;DHT22;44354;46.192;-1.076;2023-04-24T09:07:54;12.80;99.90
58568;DHT22;44354;46.192;-1.076;2023-04-24T09:10:21;12.80;99.90
58568;DHT22;44354;46.192;-1.076;2023-04-24T09:12:48;12.80;99.90
58568;DHT22;44354;46.192;-1.076;2023-04-24T09:15:15;12.70;99.90
58568;DHT22;44354;46.192;-1.076;2023-04-24T09:17:41;12.60;99.90
58568;DHT22;44354;46.192;-1.076;2023-04-24T09:20:07;12.50;99.90
58568;DHT22;44354;46.192;-1.076;2023-04-24T09:22:33;12.50;99.90
58568;DHT22;44354;46.192;-1.076;2023-04-24T09:25:17;12.50;99.90
58568;DHT22;44354;46.192;-1.076;2023-04-24T09:27:44;12.50;99.90
58568;DHT22;44354;46.192;-1.076;2023-04-24T09:30:11;12.50;99.90
58568;DHT22;44354;46.192;-1.076;2023-04-24T09:32:36;12.50;99.90
58568;DHT22;44354;46.192;-1.076;2023-04-24T09:35:10;12.50;99.90
58568;DHT22;44354;46.192;-1.076;2023-04-24T09:37:38;12.70;99.90
58568;DHT22;44354;46.192;-1.076;2023-04-24T09:40:22;13.00;99.90
58568;DHT22;44354;46.192;-1.076;2023-04-24T09:42:56;13.40;99.90
58568;DHT22;44354;46.192;-1.076;2023-04-24T09:45:27;13.60;99.90
58568;DHT22;44354;46.192;-1.076;2023-04-24T09:47:53;13.80;99.90
58568;DHT22;44354;46.192;-1.076;2023-04-24T09:50:21;13.90;99.90
58568;DHT22;44354;46.192;-1.076;2023-04-24T09:52:56;13.70;99.90
58568;DHT22;44354;46.192;-1.076;2023-04-24T09:55:22;13.90;99.90
58568;DHT22;44354;46.192;-1.076;2023-04-24T09:57:52;13.90;99.90
58568;DHT22;44354;46.192;-1.076;2023-04-24T10:00:22;13.90;99.90
58568;DHT22;44354;46.192;-1.076;2023-04-24T10:02:55;13.80;99.90
58568;DHT22;44354;46.192;-1.076;2023-04-24T10:05:23;13.70;99.90
58568;DHT22;44354;46.192;-1.076;2023-04-24T10:07:50;13.60;99.90
58568;DHT22;44354;46.192;-1.076;2023-04-24T10:10:16;13.60;99.90
58568;DHT22;44354;46.192;-1.076;2023-04-24T10:12:41;13.50;99.90
58568;DHT22;44354;46.192;-1.076;2023-04-24T10:15:10;13.40;99.90
58568;DHT22;44354;46.192;-1.076;2023-04-24T10:17:38;13.30;99.90
58568;DHT22;44354;46.192;-1.076;2023-04-24T10:20:05;13.20;99.90
58568;DHT22;44354;46.192;-1.076;2023-04-24T10:22:32;13.30;99.90
58568;DHT22;44354;46.192;-1.076;2023-04-24T10:24:58;13.20;99.90
58568;DHT22;44354;46.192;-1.076;2023-04-24T10:27:26;13.50;99.90
58568;DHT22;44354;46.192;-1.076;2023-04-24T10:29:53;13.50;99.90
58568;DHT22;44354;46.192;-1.076;2023-04-24T10:32:19;13.30;99.90
58568;DHT22;44354;46.192;-1.076;2023-04-24T10:34:44;13.70;99.90
58568;DHT22;44354;46.192;-1.076;2023-04-24T10:37:10;14.00;99.90
58568;DHT22;44354;46.192;-1.076;2023-04-24T10:39:36;14.40;99.90
58568;DHT22;44354;46.192;-1.076;2023-04-24T10:42:16;14.60;99.90
58568;DHT22;44354;46.192;-1.076;2023-04-24T10:44:42;15.00;99.90
58568;DHT22;44354;46.192;-1.076;2023-04-24T10:47:14;15.00;99.90
58568;DHT22;44354;46.192;-1.076;2023-04-24T10:49:40;15.20;99.90
58568;DHT22;44354;46.192;-1.076;2023-04-24T10:52:06;15.60;99.90
58568;DHT22;44354;46.192;-1.076;2023-04-24T10:59:44;15.20;99.90
58568;DHT22;44354;46.192;-1.076;2023-04-24T11:02:10;15.00;99.90
58568;DHT22;44354;46.192;-1.076;2023-04-24T11:04:35;14.80;99.90
58568;DHT22;44354;46.192;-1.076;2023-04-24T11:07:03;14.50;99.90
58568;DHT22;44354;46.192;-1.076;2023-04-24T11:09:33;14.50;99.90
58568;DHT22;44354;46.192;-1.076;2023-04-24T11:12:06;14.50;99.90
58568;DHT22;44354;46.192;-1.076;2023-04-24T11:17:33;14.00;99.90
58568;DHT22;44354;46.192;-1.076;2023-04-24T11:20:10;14.20;99.90
58568;DHT22;44354;46.192;-1.076;2023-04-24T11:22:38;14.40;99.90
58568;DHT22;44354;46.192;-1.076;2023-04-24T11:25:06;14.50;99.90
58568;DHT22;44354;46.192;-1.076;2023-04-24T11:27:42;13.90;99.90
58568;DHT22;44354;46.192;-1.076;2023-04-24T11:30:09;14.00;99.90
58568;DHT22;44354;46.192;-1.076;2023-04-24T11:32:36;14.00;99.90
58568;DHT22;44354;46.192;-1.076;2023-04-24T11:35:05;14.10;99.90
58568;DHT22;44354;46.192;-1.076;2023-04-24T11:37:41;14.30;99.90
58568;DHT22;44354;46.192;-1.076;2023-04-24T11:40:09;14.30;99.90
58568;DHT22;44354;46.192;-1.076;2023-04-24T11:42:40;14.20;99.90
58568;DHT22;44354;46.192;-1.076;2023-04-24T11:45:13;14.00;99.90
58568;DHT22;44354;46.192;-1.076;2023-04-24T11:47:40;14.10;99.90
58568;DHT22;44354;46.192;-1.076;2023-04-24T11:50:08;14.60;99.90
58568;DHT22;44354;46.192;-1.076;2023-04-24T11:52:39;14.60;99.90
58568;DHT22;44354;46.192;-1.076;2023-04-24T11:55:07;14.40;99.90
58568;DHT22;44354;46.192;-1.076;2023-04-24T11:57:33;14.60;99.90
58568;DHT22;44354;46.192;-1.076;2023-04-24T12:00:02;14.40;99.90
58568;DHT22;44354;46.192;-1.076;2023-04-24T12:02:29;14.50;99.90
58568;DHT22;44354;46.192;-1.076;2023-04-24T12:04:55;14.80;99.90
58568;DHT22;44354;46.192;-1.076;2023-04-24T12:07:22;14.80;99.90
58568;DHT22;44354;46.192;-1.076;2023-04-24T12:09:49;14.50;99.90
58568;DHT22;44354;46.192;-1.076;2023-04-24T12:12:17;14.30;99.90
58568;DHT22;44354;46.192;-1.076;2023-04-24T12:14:47;14.20;99.90
58568;DHT22;44354;46.192;-1.076;2023-04-24T12:17:14;14.20;99.90
58568;DHT22;44354;46.192;-1.076;2023-04-24T12:19:48;14.00;99.90
58568;DHT22;44354;46.192;-1.076;2023-04-24T12:22:14;14.00;99.90
58568;DHT22;44354;46.192;-1.076;2023-04-24T12:24:59;14.10;99.90
58568;DHT22;44354;46.192;-1.076;2023-04-24T12:27:26;14.10;99.90
58568;DHT22;44354;46.192;-1.076;2023-04-24T12:29:56;13.90;99.90
58568;DHT22;44354;46.192;-1.076;2023-04-24T12:32:22;13.90;99.90
58568;DHT22;44354;46.192;-1.076;2023-04-24T12:34:49;14.10;99.90
58568;DHT22;44354;46.192;-1.076;2023-04-24T12:37:16;14.10;99.90
58568;DHT22;44354;46.192;-1.076;2023-04-24T12:40:07;14.40;99.90
58568;DHT22;44354;46.192;-1.076;2023-04-24T12:42:34;14.70;99.90
58568;DHT22;44354;46.192;-1.076;2023-04-24T12:45:06;14.50;99.90
58568;DHT22;44354;46.192;-1.076;2023-04-24T12:47:33;14.40;99.90
58568;DHT22;44354;46.192;-1.076;2023-04-24T12:49:59;14.80;99.90
58568;DHT22;44354;46.192;-1.076;2023-04-24T12:52:26;14.80;99.90
58568;DHT22;44354;46.192;-1.076;2023-04-24T12:55:07;14.80;99.90
58568;DHT22;44354;46.192;-1.076;2023-04-24T12:57:35;14.90;99.90
58568;DHT22;44354;46.192;-1.076;2023-04-24T13:00:01;14.80;99.90
58568;DHT22;44354;46.192;-1.076;2023-04-24T13:02:28;14.90;99.90
58568;DHT22;44354;46.192;-1.076;2023-04-24T13:04:56;14.90;99.90
58568;DHT22;44354;46.192;-1.076;2023-04-24T13:07:22;14.90;99.90
58568;DHT22;44354;46.192;-1.076;2023-04-24T13:09:49;14.60;99.90
58568;DHT22;44354;46.192;-1.076;2023-04-24T13:12:15;14.50;99.90
58568;DHT22;44354;46.192;-1.076;2023-04-24T13:14:41;14.70;99.90
58568;DHT22;44354;46.192;-1.076;2023-04-24T13:17:07;14.70;99.90
58568;DHT22;44354;46.192;-1.076;2023-04-24T13:19:40;14.70;99.90
58568;DHT22;44354;46.192;-1.076;2023-04-24T13:22:06;14.60;99.90
58568;DHT22;44354;46.192;-1.076;2023-04-24T13:24:33;14.80;99.90
58568;DHT22;44354;46.192;-1.076;2023-04-24T13:26:59;15.30;99.90
58568;DHT22;44354;46.192;-1.076;2023-04-24T13:29:26;15.30;99.90
58568;DHT22;44354;46.192;-1.076;2023-04-24T13:31:54;15.00;99.90
58568;DHT22;44354;46.192;-1.076;2023-04-24T13:34:26;14.70;99.90
58568;DHT22;44354;46.192;-1.076;2023-04-24T13:36:53;14.60;99.90
58568;DHT22;44354;46.192;-1.076;2023-04-24T13:39:20;14.70;99.90
58568;DHT22;44354;46.192;-1.076;2023-04-24T13:41:46;14.60;99.90
58568;DHT22;44354;46.192;-1.076;2023-04-24T13:44:17;14.40;99.90
58568;DHT22;44354;46.192;-1.076;2023-04-24T13:46:45;14.40;99.90
58568;DHT22;44354;46.192;-1.076;2023-04-24T13:49:12;14.30;99.90
58568;DHT22;44354;46.192;-1.076;2023-04-24T13:51:38;14.20;99.90
58568;DHT22;44354;46.192;-1.076;2023-04-24T13:54:04;14.30;99.90
58568;DHT22;44354;46.192;-1.076;2023-04-24T13:56:30;14.30;99.90
58568;DHT22;44354;46.192;-1.076;2023-04-24T13:58:56;14.40;99.90
58568;DHT22;44354;46.192;-1.076;2023-04-24T14:01:22;14.40;99.90
58568;DHT22;44354;46.192;-1.076;2023-04-24T14:04:08;14.60;99.90
58568;DHT22;44354;46.192;-1.076;2023-04-24T14:06:34;14.50;99.90
58568;DHT22;44354;46.192;-1.076;2023-04-24T14:09:00;14.40;99.90
58568;DHT22;44354;46.192;-1.076;2023-04-24T14:11:26;14.20;99.90
58568;DHT22;44354;46.192;-1.076;2023-04-24T14:13:52;14.40;99.90
58568;DHT22;44354;46.192;-1.076;2023-04-24T14:16:18;14.40;99.90
58568;DHT22;44354;46.192;-1.076;2023-04-24T14:18:44;14.40;99.90
58568;DHT22;44354;46.192;-1.076;2023-04-24T14:21:10;14.30;99.90
58568;DHT22;44354;46.192;-1.076;2023-04-24T14:23:35;14.20;99.90
58568;DHT22;44354;46.192;-1.076;2023-04-24T14:26:01;13.80;99.90
58568;DHT22;44354;46.192;-1.076;2023-04-24T14:28:28;13.70;99.90
58568;DHT22;44354;46.192;-1.076;2023-04-24T14:30:53;13.60;99.90
58568;DHT22;44354;46.192;-1.076;2023-04-24T14:33:19;13.50;99.90
58568;DHT22;44354;46.192;-1.076;2023-04-24T14:35:46;13.40;99.90
58568;DHT22;44354;46.192;-1.076;2023-04-24T14:38:11;13.30;99.90
58568;DHT22;44354;46.192;-1.076;2023-04-24T14:40:37;13.20;99.90
58568;DHT22;44354;46.192;-1.076;2023-04-24T14:43:03;13.20;99.90
58568;DHT22;44354;46.192;-1.076;2023-04-24T14:45:29;13.10;99.90
58568;DHT22;44354;46.192;-1.076;2023-04-24T14:47:55;13.10;99.90
58568;DHT22;44354;46.192;-1.076;2023-04-24T14:50:21;13.00;99.90
58568;DHT22;44354;46.192;-1.076;2023-04-24T14:52:47;13.00;99.90
58568;DHT22;44354;46.192;-1.076;2023-04-24T14:55:12;13.00;99.90
58568;DHT22;44354;46.192;-1.076;2023-04-24T14:57:39;13.00;99.90
58568;DHT22;44354;46.192;-1.076;2023-04-24T15:00:06;13.20;99.90
58568;DHT22;44354;46.192;-1.076;2023-04-24T15:02:34;13.30;99.90
58568;DHT22;44354;46.192;-1.076;2023-04-24T15:05:02;13.30;99.90
58568;DHT22;44354;46.192;-1.076;2023-04-24T15:07:28;13.40;99.90
58568;DHT22;44354;46.192;-1.076;2023-04-24T15:09:54;13.30;99.90
58568;DHT22;44354;46.192;-1.076;2023-04-24T15:12:21;13.40;99.90
58568;DHT22;44354;46.192;-1.076;2023-04-24T15:14:47;13.50;99.90
58568;DHT22;44354;46.192;-1.076;2023-04-24T15:17:12;13.50;99.90
58568;DHT22;44354;46.192;-1.076;2023-04-24T15:19:40;13.60;99.90
58568;DHT22;44354;46.192;-1.076;2023-04-24T15:22:06;13.60;99.90
58568;DHT22;44354;46.192;-1.076;2023-04-24T15:24:32;13.50;99.90
58568;DHT22;44354;46.192;-1.076;2023-04-24T15:26:59;13.40;99.90